Time;durP1;ratioP1;P1;durP2;ratioP2;P2;SDS_P1;SDS_P2;PMS_P1;PMS_P2;Temp;Humidity;BMP_temperature;BMP_pressure;BME280_temperature;BME280_humidity;BME280_pressure;Samples;Min_cycle;Max_cycle;Signal;HPM_P1;HPM_P2
2021/07/03 00:01:09;;;;;;;3.15;2.85;;;;;;;22.46;67.35;100168.97;4957686;28;20039;-72
2021/07/03 00:03:35;;;;;;;4.45;2.72;;;;;;;22.53;67.08;100159.47;4957380;28;20490;-72
2021/07/03 00:06:00;;;;;;;7.82;3.25;;;;;;;22.59;66.98;100171.88;4957145;28;20030;-72
2021/07/03 00:08:28;;;;;;;3.97;2.75;;;;;;;22.56;67.45;100164.25;4957088;28;20042;-72
2021/07/03 00:10:55;;;;;;;3.90;2.47;;;;;;;22.58;67.26;100164.59;4974534;28;20026;-70
2021/07/03 00:13:20;;;;;;;5.07;2.88;;;;;;;22.60;67.15;100164.97;4957094;28;20035;-71
2021/07/03 00:15:46;;;;;;;4.10;2.55;;;;;;;22.55;66.92;100166.31;4973089;28;20042;-70
2021/07/03 00:18:13;;;;;;;6.60;2.88;;;;;;;22.58;66.77;100158.94;4957760;28;20065;-70
2021/07/03 00:20:39;;;;;;;4.82;3.28;;;;;;;22.59;66.87;100171.88;4972805;28;20139;-71
2021/07/03 00:23:05;;;;;;;4.85;2.13;;;;;;;22.56;66.96;100167.09;4957002;28;20054;-70
2021/07/03 00:25:31;;;;;;;4.28;2.97;;;;;;;22.54;66.94;100163.91;4957302;28;20141;-70
2021/07/03 00:27:57;;;;;;;4.80;3.30;;;;;;;22.67;67.04;100167.59;4957460;28;20469;-70
2021/07/03 00:30:23;;;;;;;5.55;3.00;;;;;;;22.53;67.01;100159.47;4956814;28;20070;-72
2021/07/03 00:32:48;;;;;;;3.75;2.88;;;;;;;22.51;67.70;100167.63;4972868;28;20043;-71
2021/07/03 00:35:14;;;;;;;5.47;2.78;;;;;;;22.45;67.88;100153.19;4957112;28;20049;-71
2021/07/03 00:37:41;;;;;;;3.72;2.72;;;;;;;22.51;67.79;100164.81;4960021;28;20038;-72
2021/07/03 00:40:07;;;;;;;3.35;3.00;;;;;;;22.47;67.73;100159.22;4960487;28;20026;-72
2021/07/03 00:42:33;;;;;;;7.32;2.92;;;;;;;22.56;67.73;100155.75;4960839;28;20425;-71
2021/07/03 00:45:00;;;;;;;5.40;2.70;;;;;;;22.47;68.01;100165.69;4960481;28;20031;-71
2021/07/03 00:47:25;;;;;;;3.25;2.88;;;;;;;22.52;67.69;100164.34;4960274;28;20088;-71
2021/07/03 00:49:51;;;;;;;5.40;2.78;;;;;;;22.49;67.71;100168.88;4977642;28;20039;-71
2021/07/03 00:52:16;;;;;;;3.17;2.70;;;;;;;22.52;67.73;100166.38;4960830;28;20031;-72
2021/07/03 00:54:44;;;;;;;5.60;2.70;;;;;;;22.30;68.20;100149.16;4976503;28;20054;-71
2021/07/03 00:57:11;;;;;;;4.20;2.85;;;;;;;22.40;68.12;100165.88;4976604;28;20399;-72
2021/07/03 00:59:43;;;;;;;4.05;2.83;;;;;;;22.26;68.06;100146.38;4976235;28;20565;-71
2021/07/03 01:02:10;;;;;;;4.35;3.08;;;;;;;22.34;68.37;100176.16;4977699;28;20019;-72
2021/07/03 01:04:36;;;;;;;3.42;2.80;;;;;;;22.25;68.26;100164.63;4977777;28;20065;-72
2021/07/03 01:07:06;;;;;;;6.47;3.33;;;;;;;22.32;68.54;100172.97;4976677;28;20058;-72
2021/07/03 01:09:35;;;;;;;3.55;3.20;;;;;;;22.24;68.81;100168.72;4959926;28;20069;-72
2021/07/03 01:12:02;;;;;;;6.72;3.13;;;;;;;22.22;68.62;100159.88;4959644;28;20041;-72
2021/07/03 01:14:27;;;;;;;4.28;2.80;;;;;;;22.21;68.81;100158.25;4977519;28;20034;-72
2021/07/03 01:16:54;;;;;;;5.35;2.92;;;;;;;22.17;68.95;100169.69;4960378;28;20031;-71
2021/07/03 01:19:20;;;;;;;4.60;3.03;;;;;;;22.12;69.23;100156.06;4975530;28;20082;-72
2021/07/03 01:21:53;;;;;;;6.50;3.00;;;;;;;22.15;69.33;100171.38;4976202;28;20051;-71
2021/07/03 01:24:23;;;;;;;5.07;3.20;;;;;;;22.18;69.57;100159.16;4975689;28;20038;-71
2021/07/03 01:26:51;;;;;;;4.25;2.75;;;;;;;22.18;69.55;100159.97;4976068;28;20146;-71
2021/07/03 01:29:19;;;;;;;5.13;2.88;;;;;;;22.12;69.42;100160.94;4975518;28;20042;-71
2021/07/03 01:31:50;;;;;;;4.55;2.72;;;;;;;22.17;69.39;100174.56;4943647;28;20030;-72
2021/07/03 01:34:17;;;;;;;5.72;3.38;;;;;;;22.10;69.20;100166.19;4976892;28;20035;-71
2021/07/03 01:36:42;;;;;;;6.63;3.20;;;;;;;22.09;69.36;100173.13;4975367;28;20023;-72
2021/07/03 01:39:08;;;;;;;3.40;3.00;;;;;;;22.04;69.60;100173.63;4960234;28;20035;-72
2021/07/03 01:41:37;;;;;;;5.57;2.90;;;;;;;22.07;69.60;100173.56;4961373;28;20190;-72
2021/07/03 01:44:04;;;;;;;4.22;3.05;;;;;;;22.04;69.29;100176.47;4975491;28;20490;-71
2021/07/03 01:46:31;;;;;;;4.25;3.08;;;;;;;22.03;69.47;100169.22;4975830;28;20355;-71
2021/07/03 01:49:00;;;;;;;4.00;2.78;;;;;;;21.99;69.27;100174.97;4975467;28;20109;-71
2021/07/03 01:51:26;;;;;;;4.60;3.13;;;;;;;22.00;69.35;100172.91;4975525;28;20046;-71
2021/07/03 01:53:52;;;;;;;3.55;3.00;;;;;;;22.05;68.72;100172.41;4959006;28;20038;-71
2021/07/03 01:56:17;;;;;;;3.75;2.80;;;;;;;22.05;68.65;100180.91;4959134;28;20042;-72
2021/07/03 01:58:43;;;;;;;5.28;2.92;;;;;;;21.97;69.03;100178.25;4975128;28;20027;-71
2021/07/03 02:01:08;;;;;;;4.65;2.53;;;;;;;21.94;69.33;100167.81;4976397;28;20027;-71
2021/07/03 02:03:34;;;;;;;3.90;2.92;;;;;;;21.82;69.14;100159.19;4959755;28;20043;-71
2021/07/03 02:05:59;;;;;;;4.47;3.10;;;;;;;21.91;69.56;100182.03;4975297;28;20023;-72
2021/07/03 02:08:25;;;;;;;3.10;2.55;;;;;;;21.90;69.44;100177.63;4958830;28;20030;-72
2021/07/03 02:10:51;;;;;;;5.70;2.78;;;;;;;21.92;69.47;100178.75;4959349;28;20035;-71
2021/07/03 02:13:16;;;;;;;3.92;2.47;;;;;;;21.90;69.69;100169.94;4958779;28;20035;-71
2021/07/03 02:15:42;;;;;;;4.72;3.03;;;;;;;21.86;70.12;100172.03;4959397;28;20031;-73
2021/07/03 02:18:09;;;;;;;3.90;2.72;;;;;;;21.77;70.31;100174.66;4958603;28;20509;-71
2021/07/03 02:20:35;;;;;;;3.95;2.88;;;;;;;21.83;70.22;100172.91;4974444;28;20050;-71
2021/07/03 02:23:01;;;;;;;5.00;3.13;;;;;;;21.85;70.15;100172.47;4974965;28;20053;-71
2021/07/03 02:25:28;;;;;;;4.25;2.88;;;;;;;21.90;70.30;100171.97;4975027;28;20471;-71
2021/07/03 02:27:54;;;;;;;4.43;2.78;;;;;;;21.84;70.36;100174.53;4942997;28;20030;-72
2021/07/03 02:30:21;;;;;;;4.55;3.00;;;;;;;21.83;70.35;100172.91;4958424;28;20027;-71
2021/07/03 02:32:47;;;;;;;3.03;2.80;;;;;;;21.84;70.43;100185.84;4959044;28;20073;-71
2021/07/03 02:35:15;;;;;;;9.75;8.75;;;;;;;21.80;70.32;100176.63;4958915;28;20042;-71
2021/07/03 02:37:41;;;;;;;9.48;7.80;;;;;;;21.91;70.20;100185.69;4958358;28;20041;-71
2021/07/03 02:40:10;;;;;;;7.32;6.63;;;;;;;21.85;70.08;100175.31;4974441;28;20041;-71
2021/07/03 02:42:36;;;;;;;5.70;4.80;;;;;;;21.89;69.97;100176.84;4976195;28;20116;-72
2021/07/03 02:45:05;;;;;;;8.90;3.67;;;;;;;21.89;69.95;100185.31;4975601;28;20031;-71
2021/07/03 02:47:31;;;;;;;6.05;3.45;;;;;;;21.88;69.52;100186.53;4958117;28;20026;-71
2021/07/03 02:49:56;;;;;;;5.95;3.60;;;;;;;21.89;69.55;100191.00;4958009;28;20034;-71
2021/07/03 02:52:22;;;;;;;5.20;3.42;;;;;;;21.96;69.40;100187.97;4958693;28;20066;-71
2021/07/03 02:54:49;;;;;;;4.55;3.55;;;;;;;21.94;69.13;100184.81;4974203;28;20129;-71
2021/07/03 02:57:16;;;;;;;7.55;3.95;;;;;;;22.02;68.99;100191.09;4975045;28;20054;-71
2021/07/03 02:59:42;;;;;;;4.40;3.40;;;;;;;21.94;69.68;100181.16;4957416;28;20474;-71
2021/07/03 03:02:07;;;;;;;4.60;3.88;;;;;;;21.92;69.30;100172.31;4957858;28;20026;-71
2021/07/03 03:04:33;;;;;;;6.15;4.10;;;;;;;22.01;69.23;100178.16;4974276;28;20034;-72
2021/07/03 03:06:58;;;;;;;6.15;3.45;;;;;;;21.94;69.47;100179.13;4958489;28;20045;-72
2021/07/03 03:09:26;;;;;;;4.68;3.88;;;;;;;21.86;69.68;100177.69;4957899;28;20022;-72
2021/07/03 03:11:52;;;;;;;3.88;3.42;;;;;;;21.76;70.05;100184.41;4974850;28;20022;-72
2021/07/03 03:14:17;;;;;;;6.82;3.80;;;;;;;21.74;70.13;100178.41;4973870;28;20038;-72
2021/07/03 03:16:43;;;;;;;5.07;4.10;;;;;;;21.77;69.98;100190.88;4957727;28;20033;-72
2021/07/03 03:19:08;;;;;;;4.88;3.53;;;;;;;21.77;70.18;100196.53;4957772;28;20078;-72
2021/07/03 03:21:34;;;;;;;5.95;4.43;;;;;;;21.79;69.93;100192.03;4973370;28;20055;-72
2021/07/03 03:24:02;;;;;;;10.40;5.03;;;;;;;21.80;69.94;100190.78;4957183;28;20086;-71
2021/07/03 03:26:27;;;;;;;6.93;4.72;;;;;;;21.77;70.05;100196.53;4957300;28;20030;-72
2021/07/03 03:28:53;;;;;;;10.13;5.03;;;;;;;21.60;70.18;100178.72;4957521;28;20035;-71
2021/07/03 03:31:18;;;;;;;6.95;5.10;;;;;;;21.68;70.36;100200.78;4974610;28;20030;-71
2021/07/03 03:33:44;;;;;;;7.47;6.22;;;;;;;21.71;70.07;100199.09;4957304;28;20383;-71
2021/07/03 03:36:09;;;;;;;6.75;4.10;;;;;;;21.84;69.53;100202.03;4958257;28;20034;-71
2021/07/03 03:38:35;;;;;;;4.60;4.13;;;;;;;21.83;69.83;100200.44;4975978;28;20030;-72
2021/07/03 03:41:00;;;;;;;7.53;4.57;;;;;;;21.79;69.88;100206.19;4957723;28;20103;-71
2021/07/03 03:43:26;;;;;;;9.13;8.27;;;;;;;21.78;69.56;100198.91;4957619;28;20035;-71
2021/07/03 03:45:51;;;;;;;22.42;10.73;;;;;;;21.76;69.91;100207.06;4973449;28;20035;-72
2021/07/03 03:48:17;;;;;;;12.15;10.73;;;;;;;21.83;69.35;100201.22;4957850;28;20030;-71
2021/07/03 03:50:42;;;;;;;10.27;8.75;;;;;;;21.85;69.28;100203.63;4957530;28;20031;-71
2021/07/03 03:53:08;;;;;;;11.18;8.70;;;;;;;21.77;69.69;100200.16;4957231;28;20035;-71
2021/07/03 03:55:34;;;;;;;13.38;10.60;;;;;;;21.83;69.48;100197.59;4957339;28;20085;-70
2021/07/03 03:57:59;;;;;;;13.55;12.15;;;;;;;21.88;69.16;100186.53;4957443;28;20034;-71
2021/07/03 04:00:25;;;;;;;17.23;14.73;;;;;;;21.98;68.77;100191.16;4957178;28;20433;-71
2021/07/03 04:02:51;;;;;;;13.65;11.65;;;;;;;22.23;67.94;100201.13;4957773;28;20031;-70
2021/07/03 04:05:16;;;;;;;11.90;9.57;;;;;;;22.46;66.75;100186.78;4957668;28;20045;-70
2021/07/03 04:07:43;;;;;;;9.40;7.72;;;;;;;22.69;65.72;100177.28;4957097;28;20479;-71
2021/07/03 04:10:12;;;;;;;7.82;6.38;;;;;;;23.30;64.33;100209.66;4956993;28;20027;-70
2021/07/03 04:12:41;;;;;;;6.65;5.47;;;;;;;23.67;63.09;100216.69;4977744;28;20027;-71
2021/07/03 04:15:08;;;;;;;5.70;5.00;;;;;;;23.99;61.98;100209.22;4961476;28;20463;-71
2021/07/03 04:17:34;;;;;;;7.85;5.80;;;;;;;24.37;60.95;100205.59;4960960;28;20066;-72
2021/07/03 04:20:00;;;;;;;6.78;5.55;;;;;;;24.80;59.51;100213.44;4960630;28;20166;-72
2021/07/03 04:22:31;;;;;;;5.55;4.38;;;;;;;25.21;58.32;100223.00;4976836;28;20382;-71
2021/07/03 04:24:56;;;;;;;6.93;3.78;;;;;;;25.51;57.38;100230.00;4960787;28;20035;-71
2021/07/03 04:27:22;;;;;;;6.22;3.05;;;;;;;25.87;56.74;100218.06;4978739;28;20038;-70
2021/07/03 04:29:47;;;;;;;3.97;2.83;;;;;;;26.28;55.26;100219.66;4960573;28;20038;-71
2021/07/03 04:32:16;;;;;;;2.78;2.45;;;;;;;26.61;54.35;100222.78;4976751;28;20037;-70
2021/07/03 04:34:42;;;;;;;3.03;2.83;;;;;;;27.00;53.12;100217.41;4960989;28;20094;-70
2021/07/03 04:37:08;;;;;;;5.57;2.95;;;;;;;27.32;52.36;100220.91;4960926;28;20023;-72
2021/07/03 04:39:34;;;;;;;3.63;2.72;;;;;;;27.56;51.61;100224.69;4960527;28;20405;-70
2021/07/03 04:41:59;;;;;;;5.43;2.47;;;;;;;27.58;50.73;100227.06;4960462;28;20027;-70
2021/07/03 04:44:25;;;;;;;5.22;2.40;;;;;;;27.89;50.61;100215.44;4977071;28;20085;-72
2021/07/03 04:46:51;;;;;;;5.18;2.80;;;;;;;28.30;49.72;100230.19;4960366;28;20474;-70
2021/07/03 04:49:16;;;;;;;3.35;2.45;;;;;;;28.57;48.74;100218.63;4960231;28;20031;-70
2021/07/03 04:51:42;;;;;;;5.15;2.78;;;;;;;28.51;48.48;100226.28;4977164;28;20023;-72
2021/07/03 04:54:08;;;;;;;2.38;2.17;;;;;;;28.49;48.67;100225.97;4977587;28;20076;-71
2021/07/03 04:56:34;;;;;;;3.17;2.40;;;;;;;28.56;48.93;100225.63;4960618;28;20077;-72
2021/07/03 04:59:02;;;;;;;4.78;2.38;;;;;;;28.66;48.09;100238.59;4960311;28;20034;-72
2021/07/03 05:01:28;;;;;;;2.95;2.40;;;;;;;28.24;49.58;100232.13;4977375;28;20031;-70
2021/07/03 05:03:53;;;;;;;4.32;2.30;;;;;;;28.42;48.69;100232.84;4959838;28;20035;-70
2021/07/03 05:06:19;;;;;;;3.60;2.50;;;;;;;28.75;48.48;100234.88;4959911;28;20117;-71
2021/07/03 05:08:45;;;;;;;2.92;2.60;;;;;;;28.72;48.17;100221.56;4976960;28;20035;-70
2021/07/03 05:11:10;;;;;;;3.10;2.53;;;;;;;29.50;46.61;100246.06;4959642;28;20621;-71
2021/07/03 05:13:36;;;;;;;3.47;2.55;;;;;;;29.65;46.75;100251.03;4975938;28;20046;-71
2021/07/03 05:16:03;;;;;;;5.88;2.97;;;;;;;29.42;46.47;100244.88;4960008;28;20058;-71
2021/07/03 05:18:28;;;;;;;5.13;2.50;;;;;;;29.56;45.87;100249.06;4944112;28;20031;-72
2021/07/03 05:20:54;;;;;;;4.22;2.25;;;;;;;29.92;45.10;100249.94;4975438;28;20054;-72
2021/07/03 05:23:20;;;;;;;3.65;2.13;;;;;;;30.46;44.50;100244.84;4943578;28;20545;-72
2021/07/03 05:25:46;;;;;;;4.32;2.58;;;;;;;30.01;44.68;100244.13;4959083;28;20031;-73
2021/07/03 05:28:13;;;;;;;2.75;2.15;;;;;;;29.88;45.64;100229.28;4959183;28;20056;-72
2021/07/03 05:30:40;;;;;;;3.45;2.67;;;;;;;29.83;45.95;100239.41;4943407;28;20440;-72
2021/07/03 05:33:05;;;;;;;7.28;2.80;;;;;;;29.74;46.18;100242.34;4959194;28;20031;-72
2021/07/03 05:35:31;;;;;;;4.80;2.33;;;;;;;29.85;45.75;100236.03;4959279;28;20030;-71
2021/07/03 05:37:57;;;;;;;6.65;2.28;;;;;;;29.97;45.14;100237.78;4975186;28;20537;-72
2021/07/03 05:40:23;;;;;;;3.47;1.95;;;;;;;29.28;47.10;100247.72;4976064;28;20023;-71
2021/07/03 05:42:49;;;;;;;3.00;2.25;;;;;;;28.84;48.23;100260.59;4977049;28;20041;-71
2021/07/03 05:45:16;;;;;;;4.80;2.90;;;;;;;28.89;48.31;100257.06;4943010;28;20430;-72
2021/07/03 05:47:53;;;;;;;6.70;3.03;;;;;;;29.60;46.67;100266.84;4958973;28;20085;-72
2021/07/03 05:50:23;;;;;;;4.25;1.95;;;;;;;29.55;46.73;100266.75;4976549;28;20026;-70
2021/07/03 05:52:50;;;;;;;3.40;2.00;;;;;;;28.30;49.77;100271.03;4977050;28;20042;-71
2021/07/03 05:55:16;;;;;;;3.95;2.42;;;;;;;27.90;51.41;100269.25;4976785;28;20418;-71
2021/07/03 05:57:42;;;;;;;2.78;2.10;;;;;;;27.65;51.59;100267.56;4959390;28;20030;-71
2021/07/03 06:00:10;;;;;;;5.05;2.33;;;;;;;28.30;49.67;100262.47;4959978;28;20027;-72
2021/07/03 06:02:35;;;;;;;3.17;2.70;;;;;;;28.56;49.46;100271.44;4959221;28;20034;-72
2021/07/03 06:05:01;;;;;;;3.20;2.47;;;;;;;28.73;49.02;100276.75;4975405;28;20035;-71
2021/07/03 06:07:27;;;;;;;7.65;3.40;;;;;;;28.46;50.08;100275.59;4958827;28;20474;-71
2021/07/03 06:09:53;;;;;;;10.68;3.65;;;;;;;28.73;49.44;100268.16;4958669;28;20030;-71
2021/07/03 06:12:19;;;;;;;7.75;3.20;;;;;;;28.37;49.77;100278.50;4959251;28;20382;-71
2021/07/03 06:14:45;;;;;;;4.50;2.78;;;;;;;28.63;49.08;100273.91;4976134;28;20168;-71
2021/07/03 06:17:13;;;;;;;6.78;3.47;;;;;;;28.82;48.15;100276.69;4974746;28;20034;-71
2021/07/03 06:19:41;;;;;;;6.80;4.13;;;;;;;29.20;47.57;100276.75;4975592;28;20058;-71
2021/07/03 06:22:12;;;;;;;7.45;4.25;;;;;;;29.78;45.81;100279.44;4958437;28;20026;-71
2021/07/03 06:24:38;;;;;;;7.28;3.40;;;;;;;30.31;44.98;100285.06;4958519;28;20027;-71
2021/07/03 06:27:04;;;;;;;5.50;3.70;;;;;;;30.64;44.08;100284.78;4959155;28;20066;-71
2021/07/03 06:29:32;;;;;;;6.95;4.85;;;;;;;30.69;44.60;100286.16;4958251;28;20418;-71
2021/07/03 06:31:57;;;;;;;7.05;4.18;;;;;;;30.60;44.76;100289.16;4977584;22;20145;-74
2021/07/03 06:34:23;;;;;;;7.50;2.92;;;;;;;30.43;45.41;100286.03;5014759;28;20415;-74
2021/07/03 06:36:49;;;;;;;5.63;3.17;;;;;;;30.92;44.45;100287.28;4997896;28;20046;-74
2021/07/03 06:39:14;;;;;;;6.90;3.38;;;;;;;30.65;44.08;100277.75;4997865;28;20068;-74
2021/07/03 06:41:40;;;;;;;7.30;4.50;;;;;;;31.22;43.60;100277.22;4996994;28;20025;-75
2021/07/03 06:44:05;;;;;;;5.22;3.92;;;;;;;30.89;43.53;100276.78;4996974;28;20117;-75
2021/07/03 06:46:31;;;;;;;5.55;3.80;;;;;;;31.23;43.59;100275.94;4996909;28;20037;-74
2021/07/03 06:48:57;;;;;;;8.48;4.70;;;;;;;29.91;44.97;100277.84;4996732;28;20026;-74
2021/07/03 06:51:23;;;;;;;7.07;4.50;;;;;;;29.74;45.93;100271.81;4996922;28;20034;-74
2021/07/03 06:53:49;;;;;;;5.13;4.20;;;;;;;31.18;43.24;100270.91;4996965;28;20361;-73
2021/07/03 06:56:14;;;;;;;3.95;3.30;;;;;;;31.03;42.31;100276.72;4996985;28;20036;-74
2021/07/03 06:58:43;;;;;;;5.03;3.08;;;;;;;30.09;44.67;100273.97;4996923;28;20036;-74
2021/07/03 07:01:08;;;;;;;4.18;2.72;;;;;;;31.29;42.17;100271.06;4996974;28;20385;-74
2021/07/03 07:03:34;;;;;;;7.20;3.58;;;;;;;31.58;41.54;100263.53;4996505;28;20034;-73
2021/07/03 07:05:59;;;;;;;8.15;2.80;;;;;;;31.16;42.94;100264.88;4997068;28;20076;-74
2021/07/03 07:08:25;;;;;;;6.00;2.70;;;;;;;31.08;42.59;100263.72;4996407;28;20492;-74
2021/07/03 07:10:50;;;;;;;3.55;2.65;;;;;;;30.07;44.90;100265.06;4996396;28;20025;-75
2021/07/03 07:13:16;;;;;;;4.97;2.92;;;;;;;31.21;42.45;100263.34;4996381;28;20440;-73
2021/07/03 07:15:42;;;;;;;4.65;2.40;;;;;;;31.57;41.91;100267.69;4996389;28;20113;-73
2021/07/03 07:18:08;;;;;;;5.70;2.42;;;;;;;31.35;42.24;100268.25;4996318;28;20033;-73
2021/07/03 07:20:33;;;;;;;5.10;3.15;;;;;;;30.55;44.10;100270.56;4996047;28;20092;-74
2021/07/03 07:22:59;;;;;;;3.97;2.55;;;;;;;31.00;43.09;100271.19;4996025;28;20100;-73
2021/07/03 07:25:25;;;;;;;3.70;2.75;;;;;;;31.47;41.64;100260.53;4996439;28;20121;-73
2021/07/03 07:27:53;;;;;;;4.55;2.75;;;;;;;30.40;44.69;100264.06;4996199;28;20431;-74
2021/07/03 07:30:19;;;;;;;5.43;2.85;;;;;;;31.35;42.24;100255.97;4996598;28;20057;-73
2021/07/03 07:32:46;;;;;;;3.35;2.67;;;;;;;31.73;41.08;100263.41;4995746;28;20500;-74
2021/07/03 07:35:13;;;;;;;4.65;3.40;;;;;;;31.50;42.12;100259.53;4996090;28;20026;-74
2021/07/03 07:37:38;;;;;;;3.72;2.90;;;;;;;32.07;41.05;100259.59;4996061;28;20053;-74
2021/07/03 07:40:05;;;;;;;5.22;2.75;;;;;;;32.64;39.72;100255.03;4996466;28;20461;-74
2021/07/03 07:42:31;;;;;;;3.33;3.03;;;;;;;32.50;39.55;100256.00;5013672;28;20088;-73
2021/07/03 07:44:56;;;;;;;3.70;3.10;;;;;;;32.74;39.14;100261.34;4996053;28;20026;-74
2021/07/03 07:47:22;;;;;;;3.92;3.15;;;;;;;32.60;38.73;100263.13;4995128;28;20033;-73
2021/07/03 07:49:48;;;;;;;6.75;2.92;;;;;;;32.46;39.37;100253.34;4996389;28;20030;-73
2021/07/03 07:52:14;;;;;;;7.00;3.33;;;;;;;32.63;39.05;100253.44;5013334;28;20053;-75
2021/07/03 07:54:39;;;;;;;3.58;2.95;;;;;;;33.50;37.60;100254.88;4996520;28;20064;-74
2021/07/03 07:57:05;;;;;;;7.53;3.60;;;;;;;32.57;39.05;100255.50;4995801;28;20383;-73
2021/07/03 07:59:31;;;;;;;6.57;3.38;;;;;;;33.25;37.90;100257.44;4995847;28;20030;-74
2021/07/03 08:01:56;;;;;;;5.97;3.38;;;;;;;33.31;37.51;100254.56;4996110;28;20465;-76
2021/07/03 08:04:22;;;;;;;4.78;3.85;;;;;;;33.23;37.32;100254.25;4995773;28;20400;-74
2021/07/03 08:06:48;;;;;;;4.60;3.67;;;;;;;33.24;37.41;100258.75;4995880;28;20037;-74
2021/07/03 08:09:13;;;;;;;5.68;3.35;;;;;;;33.53;36.64;100260.41;4995710;28;20388;-74
2021/07/03 08:11:39;;;;;;;5.20;3.08;;;;;;;33.21;37.20;100256.88;4996084;28;20080;-76
2021/07/03 08:14:05;;;;;;;6.65;3.42;;;;;;;32.59;38.33;100267.28;4995792;28;20030;-75
2021/07/03 08:16:30;;;;;;;7.75;3.72;;;;;;;32.90;37.75;100259.91;4995967;28;20175;-74
2021/07/03 08:18:56;;;;;;;4.10;3.42;;;;;;;33.32;37.23;100256.91;4995231;28;20116;-74
2021/07/03 08:21:22;;;;;;;7.70;3.22;;;;;;;32.88;37.77;100263.28;4995753;28;20083;-75
2021/07/03 08:23:47;;;;;;;3.97;2.38;;;;;;;32.16;40.39;100255.72;4995727;28;20034;-73
2021/07/03 08:26:14;;;;;;;2.92;2.72;;;;;;;31.73;41.81;100260.53;4995744;28;20040;-74
2021/07/03 08:28:40;;;;;;;4.05;2.85;;;;;;;32.40;41.21;100258.28;4995616;28;20022;-74
2021/07/03 08:31:06;;;;;;;4.40;2.38;;;;;;;32.95;40.69;100264.91;4996027;28;20030;-74
2021/07/03 08:33:32;;;;;;;4.70;2.67;;;;;;;33.00;40.18;100264.13;4992226;28;20061;-74
2021/07/03 08:35:58;;;;;;;4.75;2.65;;;;;;;33.22;40.14;100272.88;4992718;28;20038;-73
2021/07/03 08:38:34;;;;;;;8.95;2.30;;;;;;;32.28;42.56;100266.03;4992101;28;20389;-74
2021/07/03 08:40:59;;;;;;;4.90;2.67;;;;;;;32.49;42.01;100272.50;4992442;28;20032;-74
2021/07/03 08:43:25;;;;;;;4.70;2.60;;;;;;;33.32;40.19;100271.34;4992287;28;20092;-74
2021/07/03 08:45:58;;;;;;;3.42;2.33;;;;;;;33.20;40.75;100277.59;4992562;28;20034;-74
2021/07/03 08:48:24;;;;;;;4.05;2.35;;;;;;;32.70;41.87;100275.22;4992937;28;20097;-73
2021/07/03 08:50:55;;;;;;;5.72;2.97;;;;;;;33.37;40.80;100270.56;4993607;28;20022;-75
2021/07/03 08:53:22;;;;;;;2.38;1.95;;;;;;;32.75;41.49;100272.38;4991735;28;20062;-74
2021/07/03 08:55:49;;;;;;;3.15;2.15;;;;;;;33.34;40.14;100277.34;4992144;28;20054;-74
2021/07/03 08:58:17;;;;;;;4.25;2.13;;;;;;;33.86;39.43;100276.97;4994685;28;20496;-74
2021/07/03 09:00:45;;;;;;;2.75;2.33;;;;;;;34.38;37.92;100281.47;4996205;28;20027;-73
2021/07/03 09:03:16;;;;;;;3.45;2.75;;;;;;;33.93;37.99;100286.44;4995662;28;20540;-74
2021/07/03 09:05:54;;;;;;;4.00;2.75;;;;;;;33.31;39.39;100283.41;4995791;28;20026;-74
2021/07/03 09:08:22;;;;;;;2.92;2.00;;;;;;;33.80;39.00;100289.84;4995760;28;20030;-73
2021/07/03 09:10:57;;;;;;;5.22;2.92;;;;;;;34.06;37.85;100284.63;4995307;28;20033;-75
2021/07/03 09:13:23;;;;;;;2.67;2.20;;;;;;;34.59;37.65;100285.66;4995629;28;20441;-74
2021/07/03 09:15:49;;;;;;;3.20;2.10;;;;;;;35.43;36.18;100288.28;4995643;28;20026;-75
2021/07/03 09:18:16;;;;;;;3.65;1.85;;;;;;;35.40;35.71;100292.22;4995292;28;20337;-72
2021/07/03 09:20:53;;;;;;;3.40;2.13;;;;;;;34.55;37.44;100290.94;4995335;28;20037;-73
2021/07/03 09:23:33;;;;;;;7.70;2.30;;;;;;;34.98;36.37;100289.78;4995837;28;20034;-74
2021/07/03 09:26:04;;;;;;;6.22;3.03;;;;;;;35.40;35.87;100282.78;4994831;28;20030;-73
2021/07/03 09:28:37;;;;;;;3.97;1.88;;;;;;;35.46;35.62;100282.78;4995755;28;20066;-74
2021/07/03 09:31:04;;;;;;;4.03;1.75;;;;;;;35.54;35.79;100284.56;4996415;28;20042;-73
2021/07/03 09:33:34;;;;;;;5.25;2.00;;;;;;;34.67;37.23;100291.69;4994828;28;20129;-73
2021/07/03 09:36:05;;;;;;;4.50;2.35;;;;;;;33.49;39.16;100279.28;4995043;28;20061;-74
2021/07/03 09:38:37;;;;;;;3.90;2.03;;;;;;;34.12;38.42;100275.97;4994897;28;20037;-75
2021/07/03 09:41:11;;;;;;;3.33;2.10;;;;;;;35.36;35.92;100282.25;4994866;28;20032;-74
2021/07/03 09:43:52;;;;;;;2.85;2.30;;;;;;;35.53;35.54;100274.31;4995672;28;20053;-73
2021/07/03 09:46:28;;;;;;;3.45;2.03;;;;;;;35.42;35.38;100271.44;4994953;28;20049;-73
2021/07/03 09:48:58;;;;;;;6.70;2.30;;;;;;;34.44;37.41;100279.38;4994765;28;20481;-73
2021/07/03 09:51:48;;;;;;;3.35;1.85;;;;;;;34.78;36.47;100280.09;4994809;28;20473;-77
2021/07/03 09:54:16;;;;;;;5.93;2.10;;;;;;;35.11;35.86;100272.66;4987495;28;20078;-76
2021/07/03 09:56:42;;;;;;;5.20;2.20;;;;;;;35.11;35.86;100284.25;4994333;28;20038;-73
2021/07/03 09:59:09;;;;;;;2.42;1.80;;;;;;;34.10;37.61;100278.63;4994869;28;20034;-74
2021/07/03 10:01:38;;;;;;;6.68;1.83;;;;;;;34.59;36.53;100277.00;4994630;28;20031;-74
2021/07/03 10:04:04;;;;;;;4.57;2.50;;;;;;;34.73;36.88;100283.81;4994399;28;20146;-75
2021/07/03 10:06:43;;;;;;;2.30;2.10;;;;;;;33.92;37.83;100259.66;4994782;28;20117;-74
2021/07/03 10:09:19;;;;;;;9.73;2.00;;;;;;;34.15;37.25;100269.16;4993342;28;20489;-73
2021/07/03 10:11:49;;;;;;;3.88;1.95;;;;;;;34.00;37.65;100262.88;4994462;28;20027;-74
2021/07/03 10:14:16;;;;;;;9.07;2.88;;;;;;;33.79;38.20;100265.19;4994694;28;20421;-73
2021/07/03 10:16:42;;;;;;;3.13;1.65;;;;;;;33.83;37.91;100265.72;4994251;28;20476;-72
2021/07/03 10:19:10;;;;;;;2.80;1.73;;;;;;;33.35;38.93;100264.53;4994663;28;20529;-73
2021/07/03 10:21:37;;;;;;;3.20;2.08;;;;;;;34.24;37.67;100256.53;4994290;28;20488;-74
2021/07/03 10:24:03;;;;;;;5.03;2.20;;;;;;;33.44;39.24;100259.84;4993926;28;20167;-73
2021/07/03 10:26:38;;;;;;;7.15;1.88;;;;;;;33.38;38.70;100257.72;4994068;28;20069;-73
2021/07/03 10:29:21;;;;;;;4.32;1.80;;;;;;;33.36;39.23;100257.47;4995733;28;20034;-74
2021/07/03 10:31:47;;;;;;;;;;;;;;;34.21;37.49;100249.72;4994458;28;20027;-74
2021/07/03 10:34:13;;;;;;;5.47;1.70;;;;;;;33.83;36.62;100243.41;4977737;28;19944;-75
2021/07/03 10:36:40;;;;;;;4.05;1.80;;;;;;;33.56;37.39;100242.06;4993743;28;20030;-74
2021/07/03 10:39:05;;;;;;;3.83;2.00;;;;;;;34.26;36.27;100240.28;4993680;28;20030;-75
2021/07/03 10:41:33;;;;;;;4.65;1.63;;;;;;;34.10;36.30;100215.09;4993938;28;20077;-73
2021/07/03 10:44:11;;;;;;;3.30;1.60;;;;;;;33.27;37.63;100230.97;4993572;28;20038;-74
2021/07/03 10:46:40;;;;;;;2.15;1.60;;;;;;;33.64;36.72;100225.03;4993650;28;20122;-74
2021/07/03 10:49:12;;;;;;;2.47;1.42;;;;;;;34.36;35.38;100224.25;4993371;28;20030;-74
2021/07/03 10:51:44;;;;;;;3.00;1.50;;;;;;;33.98;35.50;100236.59;4993740;28;20031;-74
2021/07/03 10:54:14;;;;;;;3.67;1.67;;;;;;;33.83;36.63;100231.09;4994284;28;20113;-74
2021/07/03 10:56:47;;;;;;;5.18;2.47;;;;;;;33.57;36.35;100214.81;4993505;28;20301;-74
2021/07/03 10:59:16;;;;;;;3.90;1.75;;;;;;;32.73;36.30;100216.59;4993412;28;20088;-75
2021/07/03 11:01:43;;;;;;;3.53;1.85;;;;;;;33.05;37.13;100214.38;4977561;28;20039;-75
2021/07/03 11:04:19;;;;;;;3.13;1.48;;;;;;;33.10;37.06;100210.72;4993627;28;20031;-75
2021/07/03 11:06:54;;;;;;;5.10;1.90;;;;;;;33.18;36.13;100200.25;4993549;28;20026;-75
2021/07/03 11:09:33;;;;;;;3.17;1.75;;;;;;;33.65;35.63;100203.53;4994718;28;20034;-75
2021/07/03 11:12:18;;;;;;;2.58;1.95;;;;;;;33.97;34.94;100209.06;4993583;28;20433;-75
2021/07/03 11:14:53;;;;;;;4.93;2.33;;;;;;;34.13;35.35;100214.03;4993555;28;20030;-74
2021/07/03 11:17:21;;;;;;;2.40;1.70;;;;;;;34.20;35.01;100210.63;4993489;28;20037;-75
2021/07/03 11:19:50;;;;;;;2.75;1.85;;;;;;;34.56;34.63;100205.81;4993189;28;20023;-73
2021/07/03 11:22:17;;;;;;;3.33;1.65;;;;;;;33.57;36.41;100205.38;4993248;28;20133;-74
2021/07/03 11:24:47;;;;;;;2.85;1.60;;;;;;;33.39;37.77;100203.72;4993415;28;20496;-74